Flight Track Log - Related Links

Times and Time Zones

All times are in EDT time to prevent confusion due to time zone crossing. See the N21234 flight status page for this flight to view local times or setup timezone preferences in your user account.


Time Position Orientation Groundspeed Altitude Reporting Facility
EDT Latitude Longitude Course Direction KTS MPH feet Rate Location/Type
Sun 01:29:31 PM 33.7500 -84.9667 273° West 135 155 3,000  Level Atlanta TRACON
Sun 01:30:31 PM 33.7528 -85.0308 273° West 148 170 3,200 650 Climbing Atlanta Center
Sun 01:31:31 PM 33.7397 -85.0731 250° West 152 175 4,300 950 Climbing Atlanta Center
Sun 01:32:31 PM 33.7333 -85.1153 260° West 142 163 5,100 1,850 Climbing Atlanta Center
Sun 01:33:31 PM 33.7328 -85.1628 269° West 142 163 8,000 750 Climbing Atlanta Center
Sun 01:34:31 PM 33.7281 -85.2103 263° West 142 163 6,600 -350 Descending Atlanta Center
Sun 01:35:31 PM 33.7278 -85.2553 270° West 142 163 7,300 700 Climbing Atlanta Center
Sun 01:36:31 PM 33.7253 -85.2950 266° West 142 163 8,000 350 Climbing Atlanta Center
Sun 01:37:31 PM 33.7267 -85.3500 272° West 147 169 8,000 -50 Level Atlanta Center
Sun 01:38:31 PM 33.7219 -85.4050 264° West 166 191 7,900 -50 Descending Atlanta Center
Sun 01:39:31 PM 33.7214 -85.4625 269° West 171 197 7,900  Level Atlanta Center
Sun 01:40:31 PM 33.7186 -85.5197 267° West 176 203 7,900  Level Atlanta Center
Sun 01:41:31 PM 33.7178 -85.5772 269° West 176 203 7,900  Level Atlanta Center
Sun 01:42:31 PM 33.7128 -85.6422 265° West 176 203 7,900  Level Atlanta Center
Sun 01:43:31 PM 33.7100 -85.6994 267° West 176 203 7,900  Level Atlanta Center
Sun 01:44:31 PM 33.7114 -85.7569 272° West 176 203 7,900 50 Level Atlanta Center
Sun 01:45:31 PM 33.7000 -85.8117 256° West 182 209 8,000 50 Climbing Atlanta Center
Sun 01:46:31 PM 33.6992 -85.8717 269° West 176 203 8,000  Level Atlanta Center
Sun 01:47:31 PM 33.6964 -85.9264 267° West 176 203 8,000  Level Atlanta Center
Sun 01:48:31 PM 33.6933 -85.9839 266° West 176 203 8,000  Level Atlanta Center
Sun 01:49:14 PM 33.6906 -86.0261 265° West 171 197 8,000  Level Atlanta Center
Sun 01:49:31 PM 33.6903 -86.0411 269° West 176 203 8,000  Level Atlanta Center
Sun 01:50:31 PM 33.6872 -86.0983 266° West 176 203 8,000  Level Atlanta Center
Sun 01:50:38 PM 33.6872 -86.1058 270° West 172 198 8,000  Level Atlanta Center
Sun 01:51:31 PM 33.6864 -86.1558 269° West 176 203 8,000  Level Atlanta Center
Sun 01:51:39 PM 33.6842 -86.1633 250° West 171 197 8,000  Level Atlanta Center
Sun 01:52:31 PM 33.6833 -86.2108 269° West 176 203 8,000  Level Atlanta Center
Sun 01:52:33 PM 33.6811 -86.2156 241° Southwest 171 197 8,000  Level Atlanta Center
Sun 01:53:31 PM 33.6822 -86.2706 271° West 176 203 8,000  Level Atlanta Center
Sun 01:53:40 PM 33.6778 -86.2806 242° Southwest 172 198 8,000  Level Atlanta Center
Sun 01:54:31 PM 33.6792 -86.3278 272° West 176 203 8,000  Level Atlanta Center
Sun 01:54:47 PM 33.6747 -86.3428 250° West 172 198 8,000  Level Atlanta Center
Sun 01:55:29 PM 33.6761 -86.3803 273° West 172 198 8,000  Level Atlanta Center
Sun 01:55:31 PM 33.6758 -86.3828 262° West 176 203 8,000  Level Atlanta Center
Sun 01:56:30 PM 33.6706 -86.4425 264° West 173 199 8,000  Level Atlanta Center
Sun 01:56:31 PM 33.6728 -86.4400 43° Northeast 176 203 8,000  Level Atlanta Center
Sun 01:57:31 PM 33.6694 -86.5000 266° West 176 203 8,000  Level Atlanta Center
Sun 01:57:43 PM 33.6672 -86.5097 255° West 174 200 8,000  Level Atlanta Center
Sun 01:58:31 PM 33.6664 -86.5547 269° West 176 203 8,000  Level Atlanta Center
Sun 01:58:43 PM 33.6661 -86.5672 268° West 174 200 8,000  Level Atlanta Center
Sun 01:59:50 PM 33.6583 -86.6344 262° West 175 201 8,000  Level Atlanta Center
Sun 02:00:51 PM 33.6572 -86.6917 269° West 175 201 8,000  Level Atlanta Center
Sun 02:01:51 PM 33.6539 -86.7489 266° West 176 203 8,000  Level Atlanta Center
Sun 02:02:52 PM 33.6503 -86.8139 266° West 176 203 8,000  Level Atlanta Center
Sun 02:03:53 PM 33.6489 -86.8736 268° West 175 201 8,000  Level Atlanta Center
Sun 02:04:53 PM 33.6433 -86.9308 263° West 177 204 8,000  Level Atlanta Center
Sun 02:05:54 PM 33.6419 -86.9881 268° West 176 203 8,000  Level Atlanta Center
Sun 02:06:54 PM 33.6386 -87.0481 266° West 175 201 8,000  Level Atlanta Center
Sun 02:07:55 PM 33.6350 -87.1053 266° West 176 203 8,000  Level Atlanta Center
Sun 02:08:44 PM 33.6339 -87.1550 268° West 176 203 8,000  Level Atlanta Center
Sun 02:09:45 PM 33.6281 -87.2122 263° West 175 201 8,000  Level Atlanta Center
Sun 02:10:39 PM 33.6267 -87.2669 268° West 174 200 8,000  Level Atlanta Center
Sun 02:11:52 PM 33.6208 -87.3367 264° West 175 201 8,000  Level Atlanta Center
Sun 02:12:59 PM 33.6169 -87.3989 266° West 176 203 8,000 -41 Level Atlanta Center
Sun 02:14:19 PM 33.6153 -87.4761 269° West 176 203 7,900 -42 Descending Memphis Center
Sun 02:15:21 PM 33.6114 -87.5333 265° West 176 203 7,900  Level Memphis Center
Sun 02:16:23 PM 33.6078 -87.5917 266° West 175 201 7,900  Level Memphis Center
Sun 02:17:22 PM 33.5822 -87.6786 251° West 176 203 7,900  Level Memphis Center
Sun 02:17:25 PM 33.6053 -87.6506 45° Northeast 176 203 7,900  Level Memphis Center
Sun 02:18:22 PM 33.5797 -87.7361 250° West 177 204 7,900  Level Memphis Center
Sun 02:18:27 PM 33.6017 -87.7097 45° Northeast 176 203 7,900  Level Memphis Center
Sun 02:19:23 PM 33.5772 -87.7961 251° West 177 204 7,900  Level Memphis Center
Sun 02:19:29 PM 33.5975 -87.7683 49° Northeast 177 204 7,900  Level Memphis Center
Sun 02:20:23 PM 33.5747 -87.8536 252° West 177 204 7,900  Level Memphis Center
Sun 02:20:31 PM 33.5922 -87.8397 33° Northeast 178 205 7,900  Level Memphis Center
Sun 02:21:24 PM 33.5722 -87.9161 253° West 178 205 7,900  Level Memphis Center
Sun 02:21:33 PM 33.5892 -87.8997 39° Northeast 179 206 7,900  Level Memphis Center
Sun 02:22:35 PM 33.5861 -87.9581 266° West 178 205 7,900  Level Memphis Center
Sun 02:23:25 PM 33.5672 -88.0361 254° West 179 206 7,900  Level Memphis Center
Sun 02:23:37 PM 33.5822 -88.0175 46° Northeast 179 206 7,900  Level Memphis Center
Sun 02:24:26 PM 33.5644 -88.0936 254° West 179 206 7,900  Level Memphis Center
Sun 02:24:39 PM 33.5781 -88.0769 46° Northeast 179 206 7,900  Level Memphis Center
Sun 02:25:26 PM 33.5619 -88.1586 257° West 180 207 7,900  Level Memphis Center
Sun 02:25:41 PM 33.5742 -88.1358 57° Northeast 178 205 7,900  Level Memphis Center
Sun 02:26:27 PM 33.5614 -88.2158 259° West 178 205 7,900  Level Memphis Center
Sun 02:26:43 PM 33.5706 -88.2078 36° Northeast 179 206 7,900  Level Memphis Center
Sun 02:27:28 PM 33.5586 -88.2758 258° West 177 204 7,900  Level Memphis Center
Sun 02:27:45 PM 33.5667 -88.2661 45° Northeast 177 204 7,900  Level Memphis Center
Sun 02:28:28 PM 33.5581 -88.3333 261° West 179 206 7,900  Level Memphis Center
Sun 02:28:48 PM 33.5642 -88.3250 49° Northeast 178 205 7,900  Level Memphis Center
Sun 02:29:29 PM 33.5531 -88.3933 259° West 180 207 7,900  Level Memphis Center
Sun 02:29:50 PM 33.5586 -88.3853 50° Northeast 180 207 7,900  Level Memphis Center
Sun 02:30:29 PM 33.5506 -88.4533 262° West 181 208 7,900  Level Memphis Center
Sun 02:30:52 PM 33.5547 -88.4458 56° Northeast 182 209 7,900  Level Memphis Center
Sun 02:31:30 PM 33.5478 -88.5181 263° West 181 208 7,900  Level Memphis Center
Sun 02:31:54 PM 33.5517 -88.5056 70° East 181 208 7,900  Level Memphis Center
Sun 02:32:31 PM 33.5469 -88.5781 266° West 180 207 7,900 97 Level Memphis Center
Sun 02:32:56 PM 33.5469 -88.5783 270° West 182 209 8,000  Climbing Memphis Center
Sun 02:33:32 PM 33.5442 -88.6381 267° West 180 207 7,900  Descending Memphis Center
Sun 02:33:58 PM 33.5422 -88.6328 114° Southeast 179 206 8,000  Climbing Memphis Center
Sun 02:34:32 PM 33.5411 -88.6953 269° West 177 204 7,900  Descending Memphis Center
Sun 02:35:00 PM 33.5386 -88.6958 190° South 178 205 8,000  Climbing Memphis Center
Sun 02:35:33 PM 33.5383 -88.7578 270° West 176 203 7,900  Descending Memphis Center
Sun 02:36:02 PM 33.5350 -88.7489 114° Southeast 176 203 8,000  Climbing Memphis Center
Sun 02:36:34 PM 33.5353 -88.8153 270° West 176 203 7,900  Descending Memphis Center
Sun 02:37:04 PM 33.5303 -88.8172 198° South 174 200 8,000  Climbing Memphis Center
Sun 02:37:40 PM 33.5325 -88.8775 273° West 175 201 7,900  Descending Memphis Center
Sun 02:38:06 PM 33.5253 -88.8767 175° South 178 205 8,000 68 Climbing Memphis Center
Sun 02:39:08 PM 33.5206 -88.9336 264° West 176 203 8,000  Level Memphis Center
Sun 02:40:10 PM 33.5172 -88.9917 266° West 176 203 8,000  Level Memphis Center
Sun 02:41:12 PM 33.5131 -89.0497 265° West 175 201 8,000  Level Memphis Center
Sun 02:42:14 PM 33.5089 -89.1189 266° West 176 203 8,000  Level Memphis Center
Sun 02:43:16 PM 33.5042 -89.1753 264° West 173 199 8,000  Level Memphis Center
Sun 02:44:18 PM 33.5000 -89.2336 265° West 175 201 8,000  Level Memphis Center
Sun 02:45:20 PM 33.4961 -89.2894 265° West 173 199 8,000  Level Memphis Center
Sun 02:46:22 PM 33.4911 -89.3456 264° West 172 198 8,000  Level Memphis Center
Sun 02:47:24 PM 33.4869 -89.4133 266° West 171 197 8,000  Level Memphis Center
Sun 02:48:26 PM 33.4822 -89.4697 264° West 171 197 8,000  Level Memphis Center
Sun 02:49:29 PM 33.4781 -89.5258 265° West 171 197 8,000  Level Memphis Center
Sun 02:50:31 PM 33.4733 -89.5814 264° West 170 196 8,000  Level Memphis Center
Sun 02:51:33 PM 33.4683 -89.6375 264° West 170 196 8,000  Level Memphis Center
Sun 02:52:35 PM 33.4647 -89.7044 266° West 170 196 8,000  Level Memphis Center
Sun 02:53:37 PM 33.4603 -89.7608 265° West 171 197 8,000  Level Memphis Center
Sun 02:54:39 PM 33.4561 -89.8172 265° West 171 197 8,000  Level Memphis Center
Sun 02:55:41 PM 33.4514 -89.8736 264° West 172 198 8,000  Level Memphis Center
Sun 02:56:43 PM 33.4464 -89.9411 265° West 171 197 8,000  Level Memphis Center
Sun 02:57:45 PM 33.4419 -89.9969 265° West 171 197 8,000  Level Memphis Center
Sun 02:58:47 PM 33.4378 -90.0519 265° West 169 194 8,000  Level Memphis Center
Sun 02:59:49 PM 33.4325 -90.1092 264° West 171 197 8,000  Level Memphis Center
Sun 03:00:51 PM 33.4286 -90.1644 265° West 171 197 8,000  Level Memphis Center
Sun 03:01:53 PM 33.4228 -90.2311 264° West 170 196 8,000 -48 Level Memphis Center
Sun 03:02:55 PM 33.4183 -90.2861 264° West 170 196 7,900 -48 Descending Memphis Center
Sun 03:03:57 PM 33.4139 -90.3414 265° West 168 193 7,900  Level Memphis Center
Sun 03:04:59 PM 33.4092 -90.3978 264° West 170 196 7,900  Level Memphis Center
Sun 03:06:01 PM 33.4039 -90.4514 263° West 166 191 7,900  Level Memphis Center
Sun 03:07:03 PM 33.3994 -90.5186 265° West 170 196 7,900  Level Memphis Center
Sun 03:08:06 PM 33.3947 -90.5728 264° West 167 192 7,900  Level Memphis Center
Sun 03:09:08 PM 33.3906 -90.6264 265° West 164 189 7,900  Level Memphis Center
Sun 03:10:10 PM 33.3856 -90.6806 264° West 164 189 7,900  Level Memphis Center
Sun 03:11:12 PM 33.3800 -90.7350 263° West 167 192 7,900  Level Memphis Center
Sun 03:12:14 PM 33.3744 -90.8003 264° West 166 191 7,900  Level Memphis Center
Sun 03:13:16 PM 33.3697 -90.8544 264° West 166 191 7,900  Level Memphis Center
Sun 03:14:18 PM 33.3653 -90.9083 264° West 165 190 7,900  Level Memphis Center
Sun 03:15:20 PM 33.3600 -90.9628 263° West 165 190 7,900  Level Memphis Center
Sun 03:16:22 PM 33.3561 -91.0167 265° West 165 190 7,900  Level Memphis Center
Sun 03:17:24 PM 33.3508 -91.0825 265° West 165 190 7,900  Level Memphis Center
Sun 03:18:26 PM 33.3450 -91.1386 263° West 168 193 7,900  Level Memphis Center
Sun 03:19:28 PM 33.3394 -91.1936 263° West 168 193 7,900  Level Memphis Center
Sun 03:20:30 PM 33.3347 -91.2475 264° West 167 192 7,900  Level Memphis Center
Sun 03:21:32 PM 33.3311 -91.3036 266° West 168 193 7,900  Level Memphis Center
Sun 03:22:34 PM 33.3244 -91.3683 263° West 167 192 7,900  Level Memphis Center
Sun 03:23:36 PM 33.3192 -91.4217 263° West 165 190 7,900  Level Memphis Center
Sun 03:24:38 PM 33.3153 -91.4772 265° West 166 191 7,900  Level Memphis Center
Sun 03:25:40 PM 33.3103 -91.5300 264° West 164 189 7,900  Level Memphis Center
Sun 03:26:42 PM 33.3061 -91.5847 265° West 165 190 7,900  Level Memphis Center
Sun 03:27:44 PM 33.2997 -91.6475 263° West 162 186 7,900  Level Memphis Center
Sun 03:28:47 PM 33.2933 -91.7017 262° West 163 188 7,900  Level Memphis Center
Sun 03:29:49 PM 33.2900 -91.7589 266° West 162 186 7,900  Level Memphis Center
Sun 03:30:51 PM 33.2844 -91.8131 263° West 164 189 7,900  Level Memphis Center
Sun 03:31:53 PM 33.2806 -91.8672 265° West 164 189 7,900  Level Memphis Center
Sun 03:32:55 PM 33.2742 -91.9275 263° West 166 191 7,900  Level Memphis Center
Sun 03:33:57 PM 33.2681 -91.9819 262° West 166 191 7,900  Level Memphis Center
Sun 03:34:59 PM 33.2619 -92.0322 262° West 168 193 7,900 48 Level Memphis Center
Sun 03:36:01 PM 33.2586 -92.0961 266° West 163 188 8,000 48 Climbing Memphis Center
Sun 03:37:03 PM 33.2506 -92.1508 260° West 164 189 8,000  Level Memphis Center
Sun 03:38:05 PM 33.2475 -92.2042 266° West 164 189 8,000  Level Memphis Center
Sun 03:39:07 PM 33.2422 -92.2575 263° West 163 188 8,000  Level Memphis Center
Sun 03:40:09 PM 33.2375 -92.3103 264° West 161 185 8,000  Level Memphis Center
Sun 03:41:11 PM 33.2311 -92.3647 262° West 162 186 8,000  Level Memphis Center
Sun 03:42:00 PM 33.2286 -92.4097 266° West 162 186 8,000  Level Fort Worth Center
Sun 03:43:00 PM 33.2244 -92.4647 265° West 162 186 8,000  Level Fort Worth Center
Sun 03:44:00 PM 33.2203 -92.5194 265° West 162 186 8,000  Level Fort Worth Center
Sun 03:45:00 PM 33.2119 -92.5719 259° West 162 186 8,000  Level Fort Worth Center
Sun 03:46:00 PM 33.2056 -92.6269 262° West 162 186 8,000  Level Fort Worth Center
Sun 03:47:00 PM 33.2014 -92.6794 265° West 162 186 8,000  Level Fort Worth Center
Sun 03:48:00 PM 33.1972 -92.7342 265° West 162 186 8,000  Level Fort Worth Center
Sun 03:49:00 PM 33.1886 -92.7842 258° West 162 186 8,000  Level Fort Worth Center
Sun 03:50:00 PM 33.1842 -92.8367 264° West 162 186 8,000  Level Fort Worth Center
Sun 03:51:00 PM 33.1800 -92.8914 265° West 162 186 8,000  Level Fort Worth Center
Sun 03:52:00 PM 33.1714 -92.9439 259° West 162 186 8,000  Level Fort Worth Center
Sun 03:53:00 PM 33.1692 -92.9961 267° West 162 186 8,000  Level Fort Worth Center
Sun 03:54:00 PM 33.1647 -93.0486 264° West 162 186 8,000  Level Fort Worth Center
Sun 03:55:00 PM 33.1581 -93.0986 261° West 162 186 8,000  Level Fort Worth Center
Sun 03:56:00 PM 33.1514 -93.1483 261° West 162 186 8,000  Level Fort Worth Center
Sun 03:57:00 PM 33.1469 -93.2008 264° West 162 186 8,000  Level Fort Worth Center
Sun 03:58:00 PM 33.1403 -93.2506 261° West 162 186 8,000  Level Fort Worth Center
Sun 03:59:00 PM 33.1358 -93.3053 264° West 162 186 8,000  Level Fort Worth Center
Sun 04:00:00 PM 33.1292 -93.3553 261° West 162 186 8,000  Level Fort Worth Center
Sun 04:01:00 PM 33.1244 -93.4078 264° West 162 186 8,000  Level Fort Worth Center
Sun 04:02:00 PM 33.1178 -93.4575 261° West 162 186 8,000  Level Fort Worth Center
Sun 04:03:00 PM 33.1131 -93.5097 264° West 162 186 8,000  Level Fort Worth Center
Sun 04:04:00 PM 33.1083 -93.5597 264° West 162 186 8,000  Level Fort Worth Center
Sun 04:05:00 PM 33.1017 -93.6119 261° West 162 186 8,000  Level Fort Worth Center
Sun 04:06:00 PM 33.0947 -93.6619 261° West 162 186 8,000  Level Fort Worth Center
Sun 04:07:00 PM 33.0900 -93.7142 264° West 162 186 8,000  Level Fort Worth Center
Sun 04:08:00 PM 33.0833 -93.7664 261° West 162 186 8,000  Level Fort Worth Center
Sun 04:09:00 PM 33.0783 -93.8186 263° West 162 186 8,000 -150 Level Fort Worth Center
Sun 04:10:00 PM 33.0717 -93.8711 261° West 162 186 7,700 -300 Descending Fort Worth Center
Sun 04:11:00 PM 33.0650 -93.9308 262° West 162 186 7,400 -300 Descending Fort Worth Center
Sun 04:12:00 PM 33.0581 -93.9881 262° West 162 186 7,100 -300 Descending Fort Worth Center
Sun 04:13:00 PM 33.0514 -94.0428 262° West 167 192 6,800 -300 Descending Fort Worth Center
Sun 04:14:00 PM 33.0464 -94.1000 264° West 172 198 6,500 -300 Descending Fort Worth Center
Sun 04:15:00 PM 33.0397 -94.1547 262° West 177 204 6,200 -250 Descending Fort Worth Center
Sun 04:16:00 PM 33.0328 -94.2119 262° West 182 209 6,000 -100 Descending Fort Worth Center
Sun 04:17:00 PM 33.0258 -94.2667 261° West 177 204 6,000  Level Fort Worth Center
Sun 04:18:00 PM 33.0186 -94.3192 261° West 177 204 6,000  Level Fort Worth Center
Sun 04:19:00 PM 33.0158 -94.3736 267° West 171 197 6,000  Level Fort Worth Center
Sun 04:20:00 PM 33.0089 -94.4258 261° West 171 197 6,000  Level Fort Worth Center
Sun 04:21:00 PM 33.0017 -94.4806 261° West 171 197 6,000  Level Fort Worth Center
Sun 04:22:00 PM 32.9944 -94.5328 261° West 171 197 6,000  Level Fort Worth Center
Sun 04:23:00 PM 32.9894 -94.5825 263° West 161 185 6,000  Level Fort Worth Center
Sun 04:24:00 PM 32.9844 -94.6347 264° West 161 185 6,000  Level Fort Worth Center
Sun 04:25:00 PM 32.9772 -94.6894 261° West 161 185 6,000 50 Level Fort Worth Center
Sun 04:26:00 PM 32.9722 -94.7442 264° West 161 185 6,100 50 Climbing Fort Worth Center
Sun 04:27:00 PM 32.9647 -94.7939 260° West 161 185 6,100  Level Fort Worth Center
Sun 04:28:00 PM 32.9597 -94.8483 264° West 161 185 6,100  Level Fort Worth Center
Sun 04:29:00 PM 32.9522 -94.8958 259° West 161 185 6,100  Level Fort Worth Center
Sun 04:30:00 PM 32.9450 -94.9478 261° West 161 185 6,100  Level Fort Worth Center
Sun 04:31:00 PM 32.9417 -95.0000 266° West 161 185 6,100  Level Fort Worth Center
Sun 04:32:00 PM 32.9325 -95.0547 259° West 161 185 6,100  Level Fort Worth Center
Sun 04:33:00 PM 32.9269 -95.1042 262° West 161 185 6,100  Level Fort Worth Center
Sun 04:34:00 PM 32.9197 -95.1564 261° West 161 185 6,100  Level Fort Worth Center
Sun 04:35:00 PM 32.9142 -95.2086 263° West 161 185 6,100  Level Fort Worth Center
Sun 04:36:00 PM 32.9069 -95.2608 261° West 161 185 6,100 -50 Level Fort Worth Center
Sun 04:37:00 PM 32.9014 -95.3128 263° West 161 185 6,000 -50 Descending Fort Worth Center
Sun 04:38:00 PM 32.8939 -95.3650 260° West 168 193 6,000  Level Fort Worth Center
Sun 04:39:00 PM 32.8906 -95.4169 266° West 168 193 6,000 -50 Level Fort Worth Center
Sun 04:40:00 PM 32.8811 -95.4692 258° West 163 188 5,900  Descending Fort Worth Center
Sun 04:41:00 PM 32.8797 -95.5211 268° West 163 188 6,000 50 Climbing Fort Worth Center
Sun 04:42:00 PM 32.8700 -95.5733 258° West 163 188 6,000  Level Fort Worth Center
Sun 04:43:00 PM 32.8647 -95.6328 264° West 163 188 6,000 -50 Level Fort Worth Center
Sun 04:44:00 PM 32.8589 -95.6747 261° West 163 188 5,900  Descending Fort Worth Center
Sun 04:45:00 PM 32.8514 -95.7344 262° West 163 188 6,000 50 Climbing Fort Worth Center
Sun 04:46:00 PM 32.8458 -95.7789 262° West 163 188 6,000 -50 Level Fort Worth Center
Sun 04:47:00 PM 32.8381 -95.8358 261° West 163 188 5,900  Descending Fort Worth Center
Sun 04:48:00 PM 32.8325 -95.8831 262° West 163 188 6,000 50 Climbing Fort Worth Center
Sun 04:49:00 PM 32.8247 -95.9400 261° West 163 188 6,000 -150 Level Fort Worth Center
Sun 04:50:00 PM 32.8192 -95.9869 262° West 163 188 5,700 -400 Descending Fort Worth Center
Sun 04:51:00 PM 32.8114 -96.0464 261° West 163 188 5,200 -400 Descending Fort Worth Center
Sun 04:52:00 PM 32.8056 -96.0936 262° West 163 188 4,900 -350 Descending Fort Worth Center
Sun 04:53:00 PM 32.7978 -96.1531 261° West 163 188 4,500 -200 Descending Fort Worth Center
Sun 04:54:00 PM 32.7919 -96.1975 261° West 158 182 4,500  Level Fort Worth Center
Sun 04:55:00 PM 32.7864 -96.2544 263° West 158 182 4,500  Level Fort Worth Center
Sun 04:56:00 PM 32.7702 -96.3056 249° West  Level FlightAware Approximate
Sun 05:03:00 PM 32.7333 -96.5167 253° West  Level FlightAware Approximate
Sun 05:04:00 PM 32.7470 -96.5304 253° West  Level Estimated
Sun 05:05:00 PM 32.7470 -96.5304 253° West  Level Estimated
Sun 05:06:00 PM 32.7470 -96.5304 253° West  Level Estimated

Login

Don't have an account? Register now (free) for customized features, flight alerts, and more!